Time;durP1;ratioP1;P1;durP2;ratioP2;P2;SDS_P1;SDS_P2;PMS_P1;PMS_P2;Temp;Humidity;BMP_temperature;BMP_pressure;BME280_temperature;BME280_humidity;BME280_pressure;Samples;Min_cycle;Max_cycle;Signal;HPM_P1;HPM_P2
2022/03/05 00:02:09;;;;;;;55.38;20.10;;;;;;;2.05;89.25;101702.00;5066962;28;20127;-71
2022/03/05 00:04:36;;;;;;;53.65;21.75;;;;;;;1.99;89.07;101702.47;5065662;28;20044;-70
2022/03/05 00:07:03;;;;;;;54.95;21.63;;;;;;;1.93;89.66;101696.31;5065334;28;20519;-70
2022/03/05 00:09:30;;;;;;;53.28;21.13;;;;;;;1.91;90.03;101705.97;5069769;28;20131;-70
2022/03/05 00:11:57;;;;;;;55.40;20.73;;;;;;;1.88;90.19;101698.41;5069733;28;20125;-70
2022/03/05 00:14:25;;;;;;;51.50;22.20;;;;;;;1.86;90.59;101697.94;5072037;28;20044;-71
2022/03/05 00:16:52;;;;;;;53.25;20.30;;;;;;;1.86;89.63;101703.38;5067397;28;20127;-70
2022/03/05 00:19:18;;;;;;;56.85;22.92;;;;;;;1.81;91.36;101701.59;5063104;28;20060;-70
2022/03/05 00:21:46;;;;;;;58.38;21.25;;;;;;;1.81;91.72;101706.22;5062807;28;20417;-70
2022/03/05 00:24:12;;;;;;;50.65;21.85;;;;;;;1.79;92.01;101711.22;5059174;28;20048;-71
2022/03/05 00:26:39;;;;;;;54.42;21.25;;;;;;;1.78;92.13;101701.41;5066017;28;20634;-70
2022/03/05 00:29:07;;;;;;;48.70;20.35;;;;;;;1.74;91.85;101701.25;5070578;28;20064;-71
2022/03/05 00:31:34;;;;;;;57.30;23.13;;;;;;;1.72;91.76;101700.75;5062961;28;20127;-71
2022/03/05 00:34:00;;;;;;;56.40;23.50;;;;;;;1.74;91.39;101705.88;5067570;28;20078;-70
2022/03/05 00:36:27;;;;;;;51.88;22.02;;;;;;;1.70;90.79;101694.81;5077172;28;20078;-71
2022/03/05 00:38:54;;;;;;;50.90;19.65;;;;;;;1.67;92.28;101697.34;5067977;28;20072;-70
2022/03/05 00:41:20;;;;;;;50.17;21.35;;;;;;;1.69;91.70;101706.03;5067078;28;20052;-70
2022/03/05 00:43:47;;;;;;;58.78;22.38;;;;;;;1.64;91.95;101698.78;5067377;28;20072;-72
2022/03/05 00:46:14;;;;;;;54.10;21.63;;;;;;;1.66;92.21;101709.41;5067350;28;20074;-70
2022/03/05 00:48:40;;;;;;;52.95;21.95;;;;;;;1.61;92.50;101699.41;5066772;28;20078;-70
2022/03/05 00:51:07;;;;;;;60.08;21.92;;;;;;;1.60;92.87;101706.00;5070331;28;20123;-72
2022/03/05 00:53:33;;;;;;;55.83;22.48;;;;;;;1.54;92.50;101699.06;5071954;28;20839;-70
2022/03/05 00:56:00;;;;;;;58.58;21.70;;;;;;;1.49;93.63;101696.44;5071168;28;20048;-70
2022/03/05 00:58:26;;;;;;;63.67;22.27;;;;;;;1.51;93.88;101698.88;5071697;28;20080;-71
2022/03/05 01:00:53;;;;;;;57.85;24.58;;;;;;;1.51;93.25;101698.88;5083041;28;20058;-70
2022/03/05 01:03:20;;;;;;;55.03;22.65;;;;;;;1.49;93.97;101688.28;5079160;28;20040;-71
2022/03/05 01:05:47;;;;;;;55.40;21.40;;;;;;;1.47;94.83;101692.44;5077971;28;20064;-71
2022/03/05 01:08:14;;;;;;;59.97;22.67;;;;;;;1.45;94.04;101683.78;5071778;28;20059;-71
2022/03/05 01:10:40;;;;;;;66.50;21.83;;;;;;;1.42;94.61;101685.19;5081719;28;20102;-71
2022/03/05 01:13:08;;;;;;;64.47;23.58;;;;;;;1.42;93.99;101698.03;5079274;28;20524;-70
2022/03/05 01:15:34;;;;;;;54.97;21.70;;;;;;;1.40;94.09;101694.81;5070046;28;20048;-71
2022/03/05 01:18:01;;;;;;;60.25;23.52;;;;;;;1.38;93.89;101691.59;5075612;28;20048;-71
2022/03/05 01:20:28;;;;;;;60.30;23.27;;;;;;;1.37;94.72;101685.34;5074487;28;20048;-72
2022/03/05 01:22:54;;;;;;;56.97;21.45;;;;;;;1.37;94.38;101688.06;5074969;28;20052;-71
2022/03/05 01:25:21;;;;;;;61.00;21.75;;;;;;;1.37;95.13;101682.59;5074741;28;20136;-72
2022/03/05 01:27:48;;;;;;;59.63;21.05;;;;;;;1.31;94.88;101678.41;5079473;28;20076;-70
2022/03/05 01:30:17;;;;;;;56.70;21.10;;;;;;;1.29;95.00;101682.56;5073938;28;20053;-70
2022/03/05 01:32:44;;;;;;;54.88;21.23;;;;;;;1.21;95.28;101686.84;5078946;28;20055;-71
2022/03/05 01:35:10;;;;;;;55.00;20.35;;;;;;;1.15;95.19;101673.66;5081041;28;20045;-71
2022/03/05 01:37:37;;;;;;;62.70;22.77;;;;;;;1.10;96.20;101680.03;5076003;28;20050;-71
2022/03/05 01:40:05;;;;;;;56.78;21.65;;;;;;;1.09;96.04;101672.97;5073842;28;20135;-71
2022/03/05 01:42:31;;;;;;;61.08;24.35;;;;;;;1.09;96.38;101677.63;5080132;28;20136;-71
2022/03/05 01:44:58;;;;;;;61.70;22.92;;;;;;;1.10;96.49;101676.50;5077856;28;20131;-71
2022/03/05 01:47:24;;;;;;;58.00;22.35;;;;;;;1.09;96.41;101672.16;5078864;28;20080;-71
2022/03/05 01:49:51;;;;;;;55.95;19.83;;;;;;;1.06;96.03;101686.41;5072765;28;20045;-69
2022/03/05 01:52:18;;;;;;;57.33;21.38;;;;;;;1.00;95.85;101674.03;5073667;28;20059;-69
2022/03/05 01:54:44;;;;;;;61.67;22.90;;;;;;;1.00;96.23;101674.84;5074253;28;20048;-69
2022/03/05 01:57:11;;;;;;;62.33;22.38;;;;;;;1.01;96.12;101679.16;5066791;28;20052;-71
2022/03/05 01:59:39;;;;;;;66.40;24.30;;;;;;;0.99;96.04;101673.22;5072700;28;20398;-70
2022/03/05 02:02:05;;;;;;;53.88;20.52;;;;;;;1.00;96.15;101684.91;5074055;28;20101;-71
2022/03/05 02:04:32;;;;;;;57.05;21.88;;;;;;;0.98;96.11;101685.22;5069092;28;20596;-69
2022/03/05 02:06:59;;;;;;;58.72;23.23;;;;;;;0.91;95.79;101684.06;5069613;28;20576;-70
2022/03/05 02:09:25;;;;;;;62.22;21.90;;;;;;;0.89;96.82;101681.66;5078078;28;20063;-71
2022/03/05 02:11:52;;;;;;;56.13;21.90;;;;;;;0.85;96.55;101667.03;5076713;28;20099;-71
2022/03/05 02:14:19;;;;;;;57.20;22.27;;;;;;;0.88;96.91;101669.13;5070779;28;20048;-70
2022/03/05 02:16:46;;;;;;;56.20;20.90;;;;;;;0.86;96.92;101668.66;5070876;28;20076;-70
2022/03/05 02:19:13;;;;;;;59.22;22.30;;;;;;;0.86;97.03;101667.84;5069089;28;20075;-71
2022/03/05 02:21:40;;;;;;;56.10;21.95;;;;;;;0.86;96.99;101676.81;5070623;28;20135;-71
2022/03/05 02:24:07;;;;;;;62.40;21.55;;;;;;;0.83;96.71;101674.72;5069634;28;20048;-71
2022/03/05 02:26:33;;;;;;;67.47;22.30;;;;;;;0.81;96.59;101668.75;5068925;28;20139;-71
2022/03/05 02:29:00;;;;;;;60.90;21.23;;;;;;;0.80;96.93;101675.31;5069773;28;20063;-70
2022/03/05 02:31:26;;;;;;;56.08;21.10;;;;;;;0.70;97.27;101669.31;5069572;28;20049;-70
2022/03/05 02:33:55;;;;;;;61.60;21.70;;;;;;;0.69;97.75;101664.97;5070035;28;20148;-72
2022/03/05 02:36:24;;;;;;;58.28;21.98;;;;;;;0.68;97.86;101671.53;5069681;28;20048;-70
2022/03/05 02:38:51;;;;;;;63.90;23.90;;;;;;;0.71;98.36;101665.50;5067781;28;20502;-71
2022/03/05 02:41:18;;;;;;;58.20;21.67;;;;;;;0.67;97.50;101659.84;5070324;28;20048;-70
2022/03/05 02:43:45;;;;;;;60.72;20.60;;;;;;;0.64;97.55;101656.94;5070155;28;20059;-71
2022/03/05 02:46:12;;;;;;;65.78;23.30;;;;;;;0.66;98.03;101658.22;5068802;28;20136;-70
2022/03/05 02:48:39;;;;;;;59.40;20.67;;;;;;;0.65;97.38;101661.25;5069980;28;20076;-70
2022/03/05 02:51:05;;;;;;;65.82;22.42;;;;;;;0.64;98.00;101657.72;5069355;28;20131;-71
2022/03/05 02:53:32;;;;;;;57.55;20.60;;;;;;;0.64;98.41;101654.22;5069409;28;20053;-70
2022/03/05 02:55:59;;;;;;;60.45;20.77;;;;;;;0.61;97.72;101657.56;5069861;28;20490;-71
2022/03/05 02:58:25;;;;;;;65.68;23.10;;;;;;;0.58;97.99;101656.25;5066724;28;20080;-72
2022/03/05 03:00:52;;;;;;;63.78;22.58;;;;;;;0.52;98.10;101643.88;5069961;28;20048;-71
2022/03/05 03:03:19;;;;;;;54.13;19.85;;;;;;;0.47;98.32;101643.97;5067461;28;20177;-71
2022/03/05 03:05:45;;;;;;;60.47;20.58;;;;;;;0.48;98.74;101650.22;5069235;28;20063;-70
2022/03/05 03:08:12;;;;;;;65.15;22.15;;;;;;;0.51;99.30;101655.06;5069578;28;20056;-71
2022/03/05 03:10:39;;;;;;;59.53;21.55;;;;;;;0.48;98.54;101644.78;5075202;28;20131;-71
2022/03/05 03:13:05;;;;;;;59.05;21.38;;;;;;;0.44;98.49;101649.22;5068636;28;20393;-70
2022/03/05 03:15:32;;;;;;;57.05;21.08;;;;;;;0.45;99.61;101659.00;5068249;28;20476;-70
2022/03/05 03:17:58;;;;;;;55.75;21.10;;;;;;;0.44;98.93;101650.03;5069663;28;20048;-70
2022/03/05 03:20:26;;;;;;;67.72;23.55;;;;;;;0.43;99.15;101656.59;5068739;28;20079;-70
2022/03/05 03:22:54;;;;;;;58.47;21.73;;;;;;;0.41;100.00;101650.66;5069248;28;20143;-72
2022/03/05 03:25:21;;;;;;;56.13;20.73;;;;;;;0.41;100.00;101655.28;5069411;28;20053;-72
2022/03/05 03:27:48;;;;;;;60.05;23.33;;;;;;;0.38;99.49;101650.47;5069286;28;20048;-71
2022/03/05 03:30:16;;;;;;;64.70;23.33;;;;;;;0.33;99.85;101654.09;5068414;28;20072;-71
2022/03/05 03:32:44;;;;;;;61.15;23.23;;;;;;;0.31;99.40;101650.88;5067661;28;20145;-71
2022/03/05 03:35:12;;;;;;;59.40;20.48;;;;;;;0.30;100.00;101654.69;5068990;28;20074;-71
2022/03/05 03:37:40;;;;;;;55.92;21.48;;;;;;;0.26;99.95;101658.38;5068571;28;20509;-70
2022/03/05 03:40:09;;;;;;;60.10;22.83;;;;;;;0.22;100.00;101663.59;5069387;28;20056;-70
2022/03/05 03:42:36;;;;;;;64.57;21.70;;;;;;;0.20;100.00;101654.13;5069511;28;20048;-71
2022/03/05 03:45:06;;;;;;;59.78;22.20;;;;;;;0.15;100.00;101655.06;5068091;28;20127;-71
2022/03/05 03:47:33;;;;;;;64.70;22.42;;;;;;;0.16;100.00;101659.38;5067425;28;20584;-70
2022/03/05 03:49:59;;;;;;;59.63;22.48;;;;;;;0.13;100.00;101654.53;5065622;28;20083;-71
2022/03/05 03:52:26;;;;;;;60.42;22.00;;;;;;;0.17;100.00;101662.91;5064862;28;20052;-69
2022/03/05 03:54:53;;;;;;;55.17;20.88;;;;;;;0.14;100.00;101663.50;5069166;28;20118;-71
2022/03/05 03:57:20;;;;;;;62.70;21.90;;;;;;;0.09;100.00;101671.81;5067782;28;20135;-71
2022/03/05 03:59:47;;;;;;;57.63;20.88;;;;;;;0.11;100.00;101675.00;5068887;28;20114;-71
2022/03/05 04:02:13;;;;;;;59.35;21.55;;;;;;;0.08;100.00;101678.34;5068497;28;20060;-70
2022/03/05 04:04:41;;;;;;;59.03;20.02;;;;;;;0.09;100.00;101671.81;5068082;28;20056;-71
2022/03/05 04:09:54;;;;;;;59.67;20.95;;;;;;;0.06;100.00;101677.84;5070007;28;20446;-71
2022/03/05 04:12:22;;;;;;;70.60;20.65;;;;;;;0.04;100.00;101672.72;5068404;28;20052;-71
2022/03/05 04:14:49;;;;;;;61.33;21.15;;;;;;;0.04;100.00;101684.38;5067849;28;20044;-70
2022/03/05 04:17:16;;;;;;;60.22;21.90;;;;;;;0.01;100.00;101671.38;5068290;28;20599;-70
2022/03/05 04:19:43;;;;;;;60.80;20.50;;;;;;;0.03;100.00;101675.72;5069075;28;20106;-71
2022/03/05 04:22:10;;;;;;;57.90;19.23;;;;;;;0.03;100.00;101674.63;5068007;28;20052;-71
2022/03/05 04:24:37;;;;;;;60.08;20.95;;;;;;;0.01;100.00;101674.09;5066532;28;20083;-71
2022/03/05 04:27:04;;;;;;;52.88;20.63;;;;;;;-0.02;100.00;101682.91;5067476;28;20044;-71
2022/03/05 04:29:32;;;;;;;67.13;21.98;;;;;;;-0.05;100.00;101688.94;5053404;28;20500;-71
2022/03/05 04:31:59;;;;;;;54.22;19.13;;;;;;;-0.07;100.00;101682.16;5067701;28;20456;-72
2022/03/05 04:34:26;;;;;;;59.30;20.92;;;;;;;-0.08;100.00;101686.81;5068266;28;20072;-71
2022/03/05 04:36:53;;;;;;;57.13;20.60;;;;;;;-0.09;100.00;101684.41;5067166;28;20563;-71
2022/03/05 04:39:19;;;;;;;62.25;20.67;;;;;;;-0.12;100.00;101682.28;5068577;28;20048;-70
2022/03/05 04:41:46;;;;;;;61.10;19.92;;;;;;;-0.13;100.00;101676.03;5066329;28;20119;-71
2022/03/05 04:44:13;;;;;;;60.42;20.58;;;;;;;-0.11;100.00;101681.16;5068050;28;20044;-71
2022/03/05 04:46:39;;;;;;;60.40;21.27;;;;;;;-0.12;100.00;101680.38;5067919;28;20044;-70
2022/03/05 04:49:10;;;;;;;59.90;21.10;;;;;;;-0.11;100.00;101684.69;5067870;28;20058;-71
2022/03/05 04:51:37;;;;;;;60.22;21.15;;;;;;;-0.13;100.00;101680.69;5068647;28;20062;-71
2022/03/05 04:54:03;;;;;;;63.22;21.23;;;;;;;-0.14;100.00;101679.88;5068105;28;20139;-71
2022/03/05 04:56:30;;;;;;;62.78;22.77;;;;;;;-0.13;100.00;101684.19;5067217;28;20041;-72
2022/03/05 04:58:56;;;;;;;63.65;21.80;;;;;;;-0.18;100.00;101673.44;5068032;28;20519;-71
2022/03/05 05:01:23;;;;;;;60.17;20.75;;;;;;;-0.13;100.00;101672.53;5066680;28;20402;-71
2022/03/05 05:03:49;;;;;;;65.00;22.85;;;;;;;-0.13;100.00;101681.47;5067803;28;20515;-70
2022/03/05 05:06:16;;;;;;;60.55;21.65;;;;;;;-0.12;100.00;101680.38;5068301;28;20048;-69
2022/03/05 05:08:43;;;;;;;61.22;22.45;;;;;;;-0.09;100.00;101678.97;5066699;28;20850;-70
2022/03/05 05:11:09;;;;;;;53.88;21.30;;;;;;;-0.13;100.00;101689.63;5073023;28;20135;-70
2022/03/05 05:13:36;;;;;;;55.25;20.50;;;;;;;-0.13;100.00;101680.69;5067562;28;20097;-70
2022/03/05 05:16:04;;;;;;;59.92;20.08;;;;;;;-0.17;100.00;101694.06;5067327;28;20123;-70
2022/03/05 05:18:32;;;;;;;59.85;19.77;;;;;;;-0.24;100.00;101682.78;5068392;28;20548;-71
2022/03/05 05:21:00;;;;;;;55.08;19.75;;;;;;;-0.27;100.00;101686.09;5066533;28;20091;-70
2022/03/05 05:23:27;;;;;;;62.80;21.88;;;;;;;-0.33;100.00;101694.69;5067652;28;20052;-70
2022/03/05 05:25:53;;;;;;;59.03;19.20;;;;;;;-0.36;100.00;101687.94;5065921;28;20048;-71
2022/03/05 05:28:20;;;;;;;60.88;20.60;;;;;;;-0.41;100.00;101688.00;5065665;28;20059;-71
2022/03/05 05:30:46;;;;;;;64.05;20.75;;;;;;;-0.46;100.00;101690.03;5067483;28;20044;-71
2022/03/05 05:33:13;;;;;;;61.90;21.02;;;;;;;-0.41;100.00;101695.34;5067612;28;20057;-72
2022/03/05 05:35:40;;;;;;;61.53;19.48;;;;;;;-0.45;100.00;101691.63;5066942;28;20067;-71
2022/03/05 05:38:06;;;;;;;59.72;21.02;;;;;;;-0.45;100.00;101691.63;5068357;28;20107;-70
2022/03/05 05:40:34;;;;;;;67.82;21.33;;;;;;;-0.44;100.00;101693.25;5070019;28;20477;-71
2022/03/05 05:43:00;;;;;;;64.80;20.58;;;;;;;-0.45;100.00;101695.16;5069113;28;20060;-71
2022/03/05 05:45:27;;;;;;;60.92;21.30;;;;;;;-0.46;100.00;101698.19;5070902;28;20108;-70
2022/03/05 05:47:54;;;;;;;51.08;20.13;;;;;;;-0.47;100.00;101700.09;5071389;28;20418;-71
2022/03/05 05:50:20;;;;;;;58.10;20.73;;;;;;;-0.47;100.00;101700.09;5069951;28;20052;-72
2022/03/05 05:52:46;;;;;;;60.38;20.92;;;;;;;-0.49;100.00;101702.31;5071260;28;20075;-71
2022/03/05 05:55:13;;;;;;;69.20;22.98;;;;;;;-0.49;100.00;101702.31;5070141;28;20481;-70
2022/03/05 05:57:40;;;;;;;62.72;20.95;;;;;;;-0.52;100.00;101704.81;5070344;28;20059;-70
2022/03/05 06:00:07;;;;;;;58.25;21.77;;;;;;;-0.54;100.00;101701.59;5070908;28;20132;-71
2022/03/05 06:02:33;;;;;;;59.30;20.90;;;;;;;-0.53;100.00;101708.66;5070281;28;20049;-69
2022/03/05 06:05:00;;;;;;;62.50;21.80;;;;;;;-0.52;100.00;101708.34;5070756;28;20052;-69
2022/03/05 06:07:26;;;;;;;64.28;21.80;;;;;;;-0.52;100.00;101708.34;5071349;28;20060;-70
2022/03/05 06:09:53;;;;;;;62.80;22.70;;;;;;;-0.53;100.00;101700.50;5071387;28;20413;-70
2022/03/05 06:12:20;;;;;;;66.38;21.20;;;;;;;-0.52;100.00;101702.09;5070523;28;20052;-69
2022/03/05 06:14:47;;;;;;;57.17;19.27;;;;;;;-0.54;100.00;101696.16;5069993;28;20102;-69
2022/03/05 06:17:13;;;;;;;55.35;21.65;;;;;;;-0.55;100.00;101692.63;5069636;28;20080;-69
2022/03/05 06:19:40;;;;;;;63.38;21.98;;;;;;;-0.51;100.00;101690.09;5069465;28;20067;-69
2022/03/05 06:22:08;;;;;;;59.53;21.08;;;;;;;-0.51;100.00;101684.66;5069985;28;20237;-70
2022/03/05 06:24:34;;;;;;;62.33;23.02;;;;;;;-0.52;100.00;101697.47;5069199;28;20527;-70
2022/03/05 06:27:01;;;;;;;60.20;19.38;;;;;;;-0.57;100.00;101686.66;5068770;28;20083;-70
2022/03/05 06:29:27;;;;;;;64.22;22.77;;;;;;;-0.63;100.00;101685.19;5069584;28;20121;-70
2022/03/05 06:31:54;;;;;;;58.13;22.75;;;;;;;-0.60;100.00;101694.63;5070767;28;20059;-70
2022/03/05 06:34:21;;;;;;;59.15;21.88;;;;;;;-0.60;100.00;101694.63;5068600;28;20083;-70
2022/03/05 06:36:47;;;;;;;67.45;23.23;;;;;;;-0.62;100.00;101697.66;5067562;28;20055;-71
2022/03/05 06:39:14;;;;;;;62.65;22.65;;;;;;;-0.63;100.00;101697.94;5069096;28;20394;-71
2022/03/05 06:41:40;;;;;;;62.33;20.83;;;;;;;-0.63;100.00;101697.94;5068614;28;20055;-71
2022/03/05 06:44:07;;;;;;;68.93;20.80;;;;;;;-0.66;100.00;101702.06;5069913;28;20063;-71
2022/03/05 06:46:34;;;;;;;55.80;20.27;;;;;;;-0.66;100.00;101707.50;5068954;28;20041;-72
2022/03/05 06:49:00;;;;;;;63.97;20.55;;;;;;;-0.65;100.00;101711.84;5067719;28;20131;-72
2022/03/05 06:51:27;;;;;;;65.97;21.48;;;;;;;-0.59;100.00;101707.94;5068627;28;20056;-71
2022/03/05 06:53:54;;;;;;;60.80;20.75;;;;;;;-0.59;100.00;101713.38;5070237;28;20067;-72
2022/03/05 06:56:20;;;;;;;65.72;22.50;;;;;;;-0.57;100.00;101713.06;5066568;28;20048;-72
2022/03/05 06:58:47;;;;;;;60.20;21.85;;;;;;;-0.57;100.00;101702.97;5070347;28;20040;-71
2022/03/05 07:01:13;;;;;;;63.00;20.02;;;;;;;-0.53;100.00;101705.94;5070628;28;20060;-72
2022/03/05 07:03:40;;;;;;;58.65;22.67;;;;;;;-0.49;100.00;101709.66;5066541;28;20242;-71
2022/03/05 07:06:07;;;;;;;62.35;22.08;;;;;;;-0.44;100.00;101709.56;5070453;28;20084;-73
2022/03/05 07:08:33;;;;;;;70.47;22.15;;;;;;;-0.40;100.00;101722.25;5065304;28;20055;-72
2022/03/05 07:11:00;;;;;;;69.15;21.92;;;;;;;-0.38;100.00;101725.47;5075436;28;20056;-72
2022/03/05 07:13:26;;;;;;;66.18;21.65;;;;;;;-0.35;100.00;101718.63;5065352;28;20044;-71
2022/03/05 07:15:53;;;;;;;59.78;21.70;;;;;;;-0.28;100.00;101730.72;5069063;28;20143;-72
2022/03/05 07:18:20;;;;;;;61.70;22.33;;;;;;;-0.23;100.00;101724.41;5069983;28;20584;-72
2022/03/05 07:20:50;;;;;;;64.53;22.02;;;;;;;-0.23;100.00;101724.41;5069508;28;20511;-73
2022/03/05 07:23:16;;;;;;;64.00;22.98;;;;;;;-0.17;100.00;101721.28;5068057;28;20087;-71
2022/03/05 07:25:43;;;;;;;68.40;22.15;;;;;;;-0.11;100.00;101727.41;5074445;28;20122;-72
2022/03/05 07:28:11;;;;;;;66.18;22.30;;;;;;;-0.03;100.00;101732.19;5062454;28;20079;-72
2022/03/05 07:30:38;;;;;;;61.50;21.15;;;;;;;0.04;100.00;101743.47;5068010;28;20052;-72
2022/03/05 07:33:10;;;;;;;60.28;21.95;;;;;;;0.13;100.00;101738.13;5069334;28;20053;-72
2022/03/05 07:35:37;;;;;;;74.10;25.48;;;;;;;0.21;100.00;101738.22;5072693;28;20127;-72
2022/03/05 07:38:04;;;;;;;68.30;23.50;;;;;;;0.32;100.00;101738.78;5072011;28;20044;-73
2022/03/05 07:40:30;;;;;;;71.55;25.25;;;;;;;0.40;100.00;101747.03;5067298;28;20106;-72
2022/03/05 07:42:57;;;;;;;66.32;22.10;;;;;;;0.46;100.00;101745.03;5068273;28;20048;-72
2022/03/05 07:45:24;;;;;;;68.20;22.27;;;;;;;0.57;100.00;101746.44;5067830;28;20131;-72
2022/03/05 07:47:50;;;;;;;55.97;20.08;;;;;;;0.63;100.00;101743.28;5067714;28;20432;-72
2022/03/05 07:50:17;;;;;;;61.20;23.33;;;;;;;0.74;100.00;101749.31;5067171;28;20052;-72
2022/03/05 07:52:44;;;;;;;55.65;21.42;;;;;;;0.82;100.00;101748.59;5067561;28;20063;-72
2022/03/05 07:55:10;;;;;;;57.40;21.02;;;;;;;0.87;100.00;101752.00;5067761;28;20044;-72
2022/03/05 07:57:37;;;;;;;59.97;20.27;;;;;;;0.95;100.00;101748.56;5068861;28;20076;-72
2022/03/05 08:00:05;;;;;;;59.22;20.83;;;;;;;1.07;100.00;101761.59;5069158;28;20147;-72
2022/03/05 08:02:47;;;;;;;51.55;20.30;;;;;;;1.15;100.00;101769.84;5058701;28;20572;-71
2022/03/05 08:05:14;;;;;;;59.45;20.98;;;;;;;1.22;100.00;101764.78;5068760;28;20048;-71
2022/03/05 08:07:41;;;;;;;66.03;21.20;;;;;;;1.33;100.00;101779.78;5063832;28;20461;-72
2022/03/05 08:10:08;;;;;;;56.72;22.02;;;;;;;1.44;100.00;101777.59;5070722;28;20110;-72
2022/03/05 08:12:35;;;;;;;57.97;20.38;;;;;;;1.51;100.00;101772.50;5067091;28;20229;-73
2022/03/05 08:15:03;;;;;;;54.05;18.77;;;;;;;1.62;100.00;101768.44;5067168;28;20605;-73
2022/03/05 08:17:30;;;;;;;60.13;21.05;;;;;;;1.71;99.82;101781.00;5068198;28;20064;-73
2022/03/05 08:19:57;;;;;;;50.30;19.50;;;;;;;1.78;99.13;101773.16;5065012;28;20048;-73
2022/03/05 08:22:24;;;;;;;54.58;18.13;;;;;;;1.88;98.62;101772.09;5067619;28;20063;-72
2022/03/05 08:24:51;;;;;;;54.88;19.15;;;;;;;1.98;98.21;101772.63;5070067;28;20495;-73
2022/03/05 08:27:18;;;;;;;58.80;20.60;;;;;;;2.05;97.73;101780.34;5063417;28;20067;-73
2022/03/05 08:29:45;;;;;;;55.40;21.55;;;;;;;2.16;97.06;101778.97;5073786;28;20055;-72
2022/03/05 08:32:12;;;;;;;54.55;20.67;;;;;;;2.27;96.98;101775.63;5074170;28;20044;-72
2022/03/05 08:34:39;;;;;;;54.85;20.08;;;;;;;2.35;96.34;101776.78;5067888;28;20052;-72
2022/03/05 08:37:06;;;;;;;54.25;20.67;;;;;;;2.41;96.03;101759.13;5066714;28;20471;-72
2022/03/05 08:39:32;;;;;;;52.03;18.20;;;;;;;2.55;95.77;101766.09;5066219;28;20048;-72
2022/03/05 08:41:59;;;;;;;42.85;15.70;;;;;;;2.69;95.65;101772.22;5061235;28;20048;-73
2022/03/05 08:44:25;;;;;;;55.55;19.27;;;;;;;2.78;94.53;101764.03;5067913;28;20048;-72
2022/03/05 08:46:52;;;;;;;56.95;19.38;;;;;;;2.89;93.97;101768.03;5065275;28;20083;-72
2022/03/05 08:49:19;;;;;;;51.55;18.58;;;;;;;2.97;93.49;101772.72;5068471;28;20467;-71
2022/03/05 08:51:46;;;;;;;51.72;18.40;;;;;;;3.08;93.04;101760.34;5067689;28;20151;-72
2022/03/05 08:54:12;;;;;;;51.40;19.25;;;;;;;3.24;92.82;101761.44;5067716;28;20061;-72
2022/03/05 08:56:39;;;;;;;44.58;16.15;;;;;;;3.38;92.24;101767.56;5066934;28;20051;-72
2022/03/05 08:59:05;;;;;;;48.63;15.88;;;;;;;3.50;91.52;101770.44;5067610;28;20123;-72
2022/03/05 09:01:32;;;;;;;39.33;16.05;;;;;;;3.61;90.59;101763.47;5066031;28;20052;-72
2022/03/05 09:03:59;;;;;;;38.65;12.88;;;;;;;3.74;90.01;101764.44;5068039;28;20547;-72
2022/03/05 09:06:26;;;;;;;50.00;19.23;;;;;;;3.89;89.74;101752.94;5067263;28;20393;-72
2022/03/05 09:08:52;;;;;;;51.67;18.13;;;;;;;4.01;88.48;101758.53;5063905;28;20124;-72
2022/03/05 09:11:19;;;;;;;50.50;17.83;;;;;;;4.17;87.76;101767.81;5066317;28;20048;-73
2022/03/05 09:13:46;;;;;;;49.00;17.27;;;;;;;4.27;86.86;101754.56;5071056;28;20110;-73
2022/03/05 09:16:12;;;;;;;44.75;17.65;;;;;;;4.44;85.82;101770.09;5071736;28;20072;-73
2022/03/05 09:18:39;;;;;;;45.47;17.08;;;;;;;4.51;83.90;101768.47;5066362;28;20048;-72
2022/03/05 09:21:05;;;;;;;49.58;16.85;;;;;;;4.63;83.82;101762.25;5071113;28;20131;-72
2022/03/05 09:23:32;;;;;;;48.47;18.13;;;;;;;4.75;83.31;101763.13;5071546;28;20476;-72
2022/03/05 09:25:59;;;;;;;46.47;16.70;;;;;;;4.93;82.10;101761.88;5068425;28;20134;-73
2022/03/05 09:28:26;;;;;;;44.63;16.02;;;;;;;5.02;80.68;101762.63;5071854;28;20127;-72
2022/03/05 09:30:52;;;;;;;47.10;19.02;;;;;;;5.16;79.67;101763.16;5072373;28;20053;-73
2022/03/05 09:33:22;;;;;;;44.95;18.02;;;;;;;5.25;78.98;101752.91;5071081;28;20139;-73
2022/03/05 09:35:50;;;;;;;46.80;17.88;;;;;;;5.43;78.07;101762.56;5069471;28;20131;-72
2022/03/05 09:38:17;;;;;;;51.05;17.40;;;;;;;5.53;76.32;101750.34;5069666;28;20528;-72
2022/03/05 09:40:44;;;;;;;45.65;17.08;;;;;;;5.69;75.55;101751.34;5070768;28;20492;-72
2022/03/05 09:43:10;;;;;;;49.22;19.30;;;;;;;5.79;74.01;101748.16;5071007;28;20052;-72
2022/03/05 09:45:38;;;;;;;42.10;16.20;;;;;;;5.89;72.69;101753.25;5071297;28;20131;-73
2022/03/05 09:48:05;;;;;;;45.35;16.45;;;;;;;5.96;70.31;101758.16;5063801;28;20049;-72
2022/03/05 09:50:32;;;;;;;48.83;19.77;;;;;;;6.12;71.45;101753.59;5055198;28;20057;-73
2022/03/05 09:53:00;;;;;;;51.58;21.38;;;;;;;6.33;70.76;101765.28;5051490;28;20074;-73
2022/03/05 09:55:27;;;;;;;43.13;16.63;;;;;;;6.51;70.17;101763.94;5055069;28;20048;-73
2022/03/05 09:57:54;;;;;;;46.45;19.35;;;;;;;6.64;69.42;101757.25;5053380;28;20069;-73
2022/03/05 10:00:21;;;;;;;47.78;18.92;;;;;;;6.78;67.96;101757.72;5052782;28;20052;-74
2022/03/05 10:02:48;;;;;;;47.60;19.27;;;;;;;6.96;67.03;101750.78;5050865;28;20056;-74
2022/03/05 10:05:24;;;;;;;44.65;17.33;;;;;;;7.09;64.85;101757.88;5048823;28;20496;-74
2022/03/05 10:08:01;;;;;;;41.28;16.98;;;;;;;7.32;65.67;101756.16;5050343;28;20651;-74
2022/03/05 10:10:29;;;;;;;50.47;18.33;;;;;;;7.45;64.82;101754.97;5053025;28;20179;-71
2022/03/05 10:12:55;;;;;;;38.85;17.23;;;;;;;7.61;64.19;101751.09;5051846;28;21172;-73
2022/03/05 10:15:22;;;;;;;35.05;11.50;;;;;;;7.80;61.51;101750.44;5051289;28;20424;-73
2022/03/05 10:18:00;;;;;;;41.47;18.13;;;;;;;7.90;60.99;101744.41;5055705;28;20110;-73
2022/03/05 10:20:34;;;;;;;44.67;17.98;;;;;;;8.03;60.52;101754.16;5051239;28;20049;-74
2022/03/05 10:23:10;;;;;;;42.08;17.25;;;;;;;8.08;59.31;101748.41;5051925;28;20125;-69
2022/03/05 10:25:45;;;;;;;48.75;23.30;;;;;;;8.27;59.70;101742.19;5051458;28;20172;-73
2022/03/05 10:28:28;;;;;;;35.95;14.93;;;;;;;8.35;56.18;101755.81;5047673;28;20049;-72
2022/03/05 10:31:02;;;;;;;39.72;16.58;;;;;;;8.54;57.41;101742.06;5052900;28;20139;-72
2022/03/05 10:33:32;;;;;;;40.55;18.02;;;;;;;8.68;56.58;101747.13;5048623;28;20049;-72
2022/03/05 10:36:01;;;;;;;41.45;17.52;;;;;;;8.82;57.61;101742.72;5047800;28;20044;-72
2022/03/05 10:38:50;;;;;;;36.05;13.80;;;;;;;8.90;53.68;101747.22;5050272;28;20075;-73
2022/03/05 10:41:31;;;;;;;38.97;15.02;;;;;;;9.07;54.59;101749.56;5040642;28;20303;-72
2022/03/05 10:44:11;;;;;;;43.22;16.70;;;;;;;9.25;54.60;101738.91;5047914;28;20131;-72
2022/03/05 10:46:41;;;;;;;39.78;15.40;;;;;;;9.32;53.42;101734.31;5051976;28;20052;-73
2022/03/05 10:49:19;;;;;;;42.20;15.80;;;;;;;9.44;54.10;101730.59;5051752;28;20059;-74
2022/03/05 10:52:07;;;;;;;37.60;16.33;;;;;;;9.59;53.10;101729.72;5052425;28;20132;-73
2022/03/05 10:54:37;;;;;;;39.83;15.40;;;;;;;9.83;52.86;101735.66;5054837;28;20066;-73
2022/03/05 10:57:15;;;;;;;38.47;13.85;;;;;;;9.93;49.53;101732.31;5047710;28;20143;-72
2022/03/05 10:59:43;;;;;;;38.42;15.93;;;;;;;10.27;51.95;101741.63;5045917;28;20155;-74
2022/03/05 11:02:11;;;;;;;40.72;16.55;;;;;;;10.27;50.15;101725.78;5049817;28;20131;-73
2022/03/05 11:04:45;;;;;;;39.92;16.95;;;;;;;10.44;50.54;101722.50;5056351;28;20475;-74
2022/03/05 11:07:14;;;;;;;36.25;15.20;;;;;;;10.71;49.56;101728.06;5049309;28;20060;-74
2022/03/05 11:09:43;;;;;;;42.42;15.57;;;;;;;10.98;48.68;101729.63;5050843;28;20080;-74
2022/03/05 11:12:18;;;;;;;39.88;15.43;;;;;;;11.19;47.75;101727.91;5052348;28;20129;-73
2022/03/05 11:14:46;;;;;;;37.20;15.68;;;;;;;11.97;47.44;101729.56;5046887;28;20052;-74
2022/03/05 11:17:14;;;;;;;34.40;14.85;;;;;;;12.75;45.59;101734.53;5048029;28;20126;-73